Time;durP1;ratioP1;P1;durP2;ratioP2;P2;SDS_P1;SDS_P2;PMS_P1;PMS_P2;Temp;Humidity;BMP_temperature;BMP_pressure;BME280_temperature;BME280_humidity;BME280_pressure;Samples;Min_cycle;Max_cycle;Signal;HPM_P1;HPM_P2
2021/10/26 00:02:06;;;;;;;0.70;0.50;;;11.60;99.90;;;;;;5054839;28;20610;-68
2021/10/26 00:04:32;;;;;;;1.73;1.63;;;11.70;99.90;;;;;;5054721;28;20186;-69
2021/10/26 00:06:57;;;;;;;1.00;0.80;;;11.60;99.90;;;;;;5062765;28;20205;-69
2021/10/26 00:09:23;;;;;;;0.70;0.50;;;11.60;99.90;;;;;;5057401;28;20271;-69
2021/10/26 00:11:49;;;;;;;0.70;0.50;;;11.60;99.90;;;;;;5054880;28;20232;-69
2021/10/26 00:14:15;;;;;;;0.70;0.60;;;11.60;99.90;;;;;;5050648;28;20422;-69
2021/10/26 00:16:41;;;;;;;0.70;0.50;;;11.70;99.90;;;;;;5052800;28;20480;-67
2021/10/26 00:19:06;;;;;;;1.13;1.03;;;11.60;99.90;;;;;;5054678;28;20187;-68
2021/10/26 00:21:32;;;;;;;0.87;0.70;;;11.60;99.90;;;;;;5059238;28;20170;-69
2021/10/26 00:23:58;;;;;;;0.70;0.50;;;11.70;99.90;;;;;;5054334;28;20258;-68
2021/10/26 00:26:23;;;;;;;1.13;0.70;;;11.60;99.90;;;;;;5053816;28;20199;-69
2021/10/26 00:28:49;;;;;;;0.80;0.77;;;11.70;99.90;;;;;;5054091;28;20175;-69
2021/10/26 00:31:14;;;;;;;0.73;0.60;;;11.70;99.90;;;;;;5050396;28;20266;-69
2021/10/26 00:33:40;;;;;;;0.70;0.50;;;11.70;99.90;;;;;;5052922;28;20253;-68
2021/10/26 00:36:06;;;;;;;0.70;0.50;;;11.70;99.90;;;;;;5052091;28;20563;-69
2021/10/26 00:38:31;;;;;;;0.70;0.60;;;11.70;99.90;;;;;;5050691;28;20198;-69
2021/10/26 00:40:58;;;;;;;0.80;0.67;;;11.70;99.90;;;;;;5054006;28;20541;-69
2021/10/26 00:43:24;;;;;;;0.70;0.50;;;11.70;99.90;;;;;;5054090;28;20321;-69
2021/10/26 00:45:50;;;;;;;0.70;0.50;;;11.80;99.90;;;;;;5053925;28;20520;-70
2021/10/26 00:48:16;;;;;;;0.70;0.50;;;11.80;99.90;;;;;;5053534;28;20690;-70
2021/10/26 00:50:42;;;;;;;0.70;0.50;;;11.80;99.90;;;;;;5053879;28;20551;-70
2021/10/26 00:53:07;;;;;;;0.70;0.60;;;11.80;99.90;;;;;;5054016;28;20179;-70
2021/10/26 00:55:33;;;;;;;0.70;0.50;;;11.80;99.90;;;;;;5053583;28;20190;-70
2021/10/26 00:57:59;;;;;;;0.70;0.50;;;11.80;99.90;;;;;;5051818;28;20261;-69
2021/10/26 01:00:24;;;;;;;1.47;0.83;;;11.90;99.90;;;;;;5053940;28;20163;-67
2021/10/26 01:02:50;;;;;;;1.07;1.07;;;11.80;99.90;;;;;;5053632;28;20421;-70
2021/10/26 01:05:16;;;;;;;0.70;0.50;;;11.80;99.90;;;;;;5049889;28;20636;-69
2021/10/26 01:07:44;;;;;;;0.70;0.60;;;11.90;99.90;;;;;;5053240;28;20174;-70
2021/10/26 01:10:10;;;;;;;0.70;0.60;;;11.90;99.90;;;;;;5053404;28;20421;-68
2021/10/26 01:12:36;;;;;;;0.90;0.63;;;11.90;99.90;;;;;;5053815;28;20460;-68
2021/10/26 01:15:03;;;;;;;0.73;0.70;;;11.90;99.90;;;;;;5053111;28;20425;-68
2021/10/26 01:17:29;;;;;;;1.83;0.80;;;12.00;99.90;;;;;;5053420;28;20915;-68
2021/10/26 01:19:57;;;;;;;0.70;0.50;;;12.00;99.90;;;;;;5053292;28;20547;-69
2021/10/26 01:22:25;;;;;;;0.80;0.70;;;12.00;99.90;;;;;;5066620;28;20175;-69
2021/10/26 01:24:51;;;;;;;0.70;0.50;;;12.00;99.90;;;;;;5045552;28;20444;-69
2021/10/26 01:27:17;;;;;;;0.70;0.50;;;12.00;99.90;;;;;;5053440;28;20448;-69
2021/10/26 01:29:44;;;;;;;1.10;1.00;;;11.90;99.90;;;;;;5053345;28;20800;-69
2021/10/26 01:32:11;;;;;;;0.70;0.50;;;12.00;99.90;;;;;;5053048;28;20429;-69
2021/10/26 01:34:37;;;;;;;0.70;0.60;;;12.00;99.90;;;;;;5052832;28;20421;-71
2021/10/26 01:37:06;;;;;;;0.80;0.60;;;12.00;99.90;;;;;;5051781;28;20448;-70
2021/10/26 01:39:33;;;;;;;0.70;0.57;;;11.90;99.90;;;;;;5053074;28;21060;-70
2021/10/26 01:42:00;;;;;;;0.80;0.60;;;11.90;99.90;;;;;;5049317;28;20501;-69
2021/10/26 01:44:26;;;;;;;0.80;0.70;;;11.90;99.90;;;;;;5049596;28;20417;-69
2021/10/26 01:46:52;;;;;;;2.80;0.90;;;11.90;99.90;;;;;;5049465;28;20531;-68
2021/10/26 01:49:19;;;;;;;0.80;0.60;;;11.90;99.90;;;;;;5045225;28;20453;-70
2021/10/26 01:51:46;;;;;;;1.83;1.67;;;11.80;99.90;;;;;;5044411;28;20445;-70
2021/10/26 01:54:12;;;;;;;0.80;0.67;;;11.80;99.90;;;;;;5045232;28;20433;-68
2021/10/26 01:56:38;;;;;;;1.20;1.07;;;11.80;99.90;;;;;;5041190;28;20461;-68
2021/10/26 01:59:04;;;;;;;0.70;0.50;;;11.70;99.90;;;;;;5049105;28;21488;-70
2021/10/26 02:01:29;;;;;;;0.70;0.60;;;11.70;99.90;;;;;;5046411;28;20442;-69
2021/10/26 02:03:55;;;;;;;0.70;0.50;;;11.60;99.90;;;;;;5047833;28;20214;-70
2021/10/26 02:06:20;;;;;;;0.73;0.60;;;11.60;99.90;;;;;;5046914;28;20206;-69
2021/10/26 02:08:46;;;;;;;0.87;0.70;;;11.60;99.90;;;;;;5046713;28;20189;-70
2021/10/26 02:11:12;;;;;;;1.53;1.43;;;11.60;99.90;;;;;;5041263;28;20175;-68
2021/10/26 02:13:37;;;;;;;0.70;0.50;;;11.60;99.90;;;;;;5046660;28;20190;-68
2021/10/26 02:16:03;;;;;;;0.70;0.50;;;11.50;99.90;;;;;;5046540;28;20195;-68
2021/10/26 02:18:29;;;;;;;0.93;0.70;;;11.50;99.90;;;;;;5042770;28;20199;-69
2021/10/26 02:20:55;;;;;;;0.93;0.93;;;11.50;99.90;;;;;;5047103;28;20178;-69
2021/10/26 02:23:21;;;;;;;0.70;0.50;;;11.50;99.90;;;;;;5044798;28;20425;-69
2021/10/26 02:25:47;;;;;;;0.70;0.63;;;11.50;99.90;;;;;;5047989;28;20576;-69
2021/10/26 02:28:12;;;;;;;0.70;0.50;;;11.60;99.90;;;;;;5040677;28;20430;-70
2021/10/26 02:30:40;;;;;;;0.70;0.70;;;11.60;99.90;;;;;;5044842;28;20186;-68
2021/10/26 02:33:05;;;;;;;0.70;0.60;;;11.60;99.90;;;;;;5045036;28;20193;-69
2021/10/26 02:35:31;;;;;;;0.93;0.93;;;11.70;99.90;;;;;;5045523;28;20472;-70
2021/10/26 02:37:57;;;;;;;0.70;0.50;;;11.70;99.90;;;;;;5043815;28;20171;-68
2021/10/26 02:40:22;;;;;;;0.70;0.50;;;11.80;99.90;;;;;;5045994;28;20256;-69
2021/10/26 02:42:48;;;;;;;0.80;0.73;;;11.80;99.90;;;;;;5045873;28;20181;-68
2021/10/26 02:45:15;;;;;;;0.70;0.50;;;11.90;99.90;;;;;;5039851;28;20686;-69
2021/10/26 02:47:41;;;;;;;0.70;0.60;;;11.80;99.90;;;;;;5044163;28;20175;-69
2021/10/26 02:50:07;;;;;;;0.70;0.50;;;11.90;99.90;;;;;;5047137;28;20479;-69
2021/10/26 02:52:33;;;;;;;2.20;1.73;;;11.90;99.90;;;;;;5046289;28;20257;-68
2021/10/26 02:54:59;;;;;;;0.80;0.70;;;11.90;99.90;;;;;;5045022;28;20450;-68
2021/10/26 02:57:24;;;;;;;0.70;0.50;;;11.90;99.90;;;;;;5045201;28;20845;-69
2021/10/26 02:59:50;;;;;;;0.70;0.50;;;11.90;99.90;;;;;;5041678;28;20285;-70
2021/10/26 03:02:15;;;;;;;0.70;0.60;;;11.90;99.90;;;;;;5043427;28;20727;-70
2021/10/26 03:04:41;;;;;;;1.17;0.80;;;11.90;99.90;;;;;;5043812;28;20178;-68
2021/10/26 03:07:06;;;;;;;2.13;1.70;;;11.90;99.90;;;;;;5044862;28;20195;-68
2021/10/26 03:09:32;;;;;;;0.70;0.60;;;12.00;99.90;;;;;;5041383;28;20175;-69
2021/10/26 03:11:58;;;;;;;0.80;0.60;;;11.90;99.90;;;;;;5045499;28;20170;-69
2021/10/26 03:14:23;;;;;;;5.80;1.37;;;11.90;99.90;;;;;;5043575;28;20179;-70
2021/10/26 03:16:49;;;;;;;1.00;0.70;;;11.90;99.90;;;;;;5043415;28;20218;-70
2021/10/26 03:19:14;;;;;;;0.70;0.60;;;11.90;99.90;;;;;;5040087;28;20214;-71
2021/10/26 03:21:40;;;;;;;0.70;0.50;;;11.90;99.90;;;;;;5045465;28;20190;-72
2021/10/26 03:24:06;;;;;;;0.80;0.70;;;11.80;99.90;;;;;;5047116;28;20258;-69
2021/10/26 03:26:31;;;;;;;0.70;0.50;;;11.80;99.90;;;;;;5045395;28;20201;-68
2021/10/26 03:28:57;;;;;;;0.70;0.60;;;11.80;99.90;;;;;;5043777;28;20441;-69
2021/10/26 03:31:23;;;;;;;1.10;1.00;;;11.70;99.90;;;;;;5043715;28;20611;-68
2021/10/26 03:33:49;;;;;;;0.70;0.50;;;11.70;99.90;;;;;;5049345;28;20179;-68
2021/10/26 03:36:15;;;;;;;0.70;0.60;;;11.70;99.90;;;;;;5048140;28;20552;-69
2021/10/26 03:38:42;;;;;;;0.70;0.60;;;11.70;99.90;;;;;;5050046;28;20198;-69
2021/10/26 03:41:08;;;;;;;0.70;0.50;;;11.70;99.90;;;;;;5048655;28;20209;-70
2021/10/26 03:43:33;;;;;;;3.90;2.17;;;11.70;99.90;;;;;;5046594;28;20457;-68
2021/10/26 03:45:59;;;;;;;1.03;0.83;;;11.70;99.90;;;;;;5047127;28;20202;-69
2021/10/26 03:48:25;;;;;;;0.80;0.70;;;11.70;99.90;;;;;;5046343;28;20618;-68
2021/10/26 03:50:51;;;;;;;0.70;0.60;;;11.70;99.90;;;;;;5046733;28;20198;-69
2021/10/26 03:53:17;;;;;;;0.70;0.50;;;11.60;99.90;;;;;;5049146;28;20433;-69
2021/10/26 03:55:42;;;;;;;0.90;0.67;;;11.60;99.90;;;;;;5048049;28;20199;-68
2021/10/26 03:58:08;;;;;;;1.67;1.57;;;11.60;99.90;;;;;;5045628;28;20441;-71
2021/10/26 04:00:35;;;;;;;1.20;0.70;;;11.60;99.90;;;;;;5049273;28;20637;-69
2021/10/26 04:03:01;;;;;;;0.83;0.73;;;11.50;99.90;;;;;;5048331;28;20417;-69
2021/10/26 04:06:14;;;;;;;0.70;0.50;;;11.50;99.90;;;;;;5049733;28;20421;-68
2021/10/26 04:08:30;;;;;;;0.97;0.70;;;11.50;99.90;;;;;;5034821;28;21084;-68
2021/10/26 04:10:58;;;;;;;1.23;0.87;;;11.40;99.90;;;;;;5050189;28;20424;-70
2021/10/26 04:13:25;;;;;;;1.23;0.80;;;11.40;99.90;;;;;;5047159;28;20428;-68
2021/10/26 04:15:54;;;;;;;0.70;0.50;;;11.30;99.90;;;;;;5048175;28;20441;-68
2021/10/26 04:18:19;;;;;;;0.70;0.60;;;11.30;99.90;;;;;;5047441;28;20421;-69
2021/10/26 04:20:45;;;;;;;0.70;0.50;;;11.30;99.90;;;;;;5047744;28;20425;-72
2021/10/26 04:23:10;;;;;;;1.33;1.23;;;11.30;99.90;;;;;;5048307;28;20240;-68
2021/10/26 04:25:36;;;;;;;0.70;0.50;;;11.20;99.90;;;;;;5047193;28;20199;-69
2021/10/26 04:28:02;;;;;;;0.70;0.50;;;11.30;99.90;;;;;;5046233;28;20217;-69
2021/10/26 04:30:29;;;;;;;0.80;0.80;;;11.30;99.90;;;;;;5046702;28;20221;-69
2021/10/26 04:32:55;;;;;;;0.70;0.50;;;11.30;99.90;;;;;;5045513;28;20441;-69
2021/10/26 04:35:20;;;;;;;0.70;0.60;;;11.20;99.90;;;;;;5050373;28;20423;-71
2021/10/26 04:37:46;;;;;;;0.80;0.70;;;11.20;99.90;;;;;;5047880;28;20441;-69
2021/10/26 04:40:13;;;;;;;0.70;0.50;;;11.20;99.90;;;;;;5048907;28;20202;-69
2021/10/26 04:42:38;;;;;;;0.70;0.50;;;11.20;99.90;;;;;;5045598;28;20183;-70
2021/10/26 04:45:07;;;;;;;1.23;0.80;;;11.30;99.90;;;;;;5047084;28;20845;-68
2021/10/26 04:47:33;;;;;;;1.37;1.27;;;11.30;99.90;;;;;;5047834;28;20441;-69
2021/10/26 04:49:59;;;;;;;0.97;0.87;;;11.30;99.90;;;;;;5049956;28;20447;-69
2021/10/26 04:52:24;;;;;;;0.70;0.60;;;11.30;99.90;;;;;;5045448;28;20182;-70
2021/10/26 04:54:50;;;;;;;1.43;1.00;;;11.20;99.90;;;;;;5045671;28;20182;-69
2021/10/26 04:57:15;;;;;;;1.00;0.90;;;11.20;99.90;;;;;;5047352;28;20211;-70
2021/10/26 04:59:41;;;;;;;0.80;0.77;;;11.10;99.90;;;;;;5046353;28;20206;-70
2021/10/26 05:02:07;;;;;;;1.00;0.60;;;11.10;99.90;;;;;;5044220;28;20645;-69
2021/10/26 05:04:33;;;;;;;0.70;0.50;;;11.10;99.90;;;;;;5043394;28;20482;-71
2021/10/26 05:06:59;;;;;;;0.70;0.50;;;11.10;99.90;;;;;;5042445;28;20213;-69
2021/10/26 05:09:24;;;;;;;3.67;0.70;;;11.00;99.90;;;;;;5044104;28;20447;-71
2021/10/26 05:11:50;;;;;;;2.07;1.27;;;11.00;99.90;;;;;;5046273;28;20187;-68
2021/10/26 05:14:16;;;;;;;0.70;0.50;;;11.00;99.90;;;;;;5046711;28;20179;-69
2021/10/26 05:16:44;;;;;;;0.97;0.87;;;10.90;99.90;;;;;;5045607;28;20468;-69
2021/10/26 05:19:10;;;;;;;0.70;0.50;;;10.90;99.90;;;;;;5047244;28;20183;-69
2021/10/26 05:21:36;;;;;;;1.37;0.80;;;10.90;99.90;;;;;;5048489;28;20457;-68
2021/10/26 05:24:01;;;;;;;0.80;0.70;;;10.90;99.90;;;;;;5046743;28;20457;-70
2021/10/26 05:26:27;;;;;;;0.80;0.60;;;10.90;99.90;;;;;;5043846;28;20245;-68
2021/10/26 05:28:53;;;;;;;2.40;2.20;;;11.00;99.90;;;;;;5043893;28;20586;-68
2021/10/26 05:31:19;;;;;;;0.70;0.40;;;11.00;99.90;;;;;;5048470;28;20482;-70
2021/10/26 05:33:46;;;;;;;0.70;0.50;;;11.00;99.90;;;;;;5047919;28;20429;-70
2021/10/26 05:36:13;;;;;;;0.70;0.57;;;11.00;99.90;;;;;;5047120;28;20199;-70
2021/10/26 05:38:39;;;;;;;4.53;2.97;;;11.00;99.90;;;;;;5043530;28;20536;-68
2021/10/26 05:41:05;;;;;;;0.87;0.80;;;11.10;99.90;;;;;;5045904;28;20871;-68
2021/10/26 05:43:31;;;;;;;0.70;0.60;;;11.10;99.90;;;;;;5047561;28;20262;-68
2021/10/26 05:45:57;;;;;;;1.10;0.93;;;11.10;99.90;;;;;;5045825;28;20532;-68
2021/10/26 05:48:23;;;;;;;0.70;0.50;;;11.10;99.90;;;;;;5046379;28;20170;-71
2021/10/26 05:50:49;;;;;;;0.83;0.70;;;11.10;99.90;;;;;;5046564;28;20894;-70
2021/10/26 05:53:15;;;;;;;0.70;0.50;;;11.10;99.90;;;;;;5045210;28;20221;-68
2021/10/26 05:55:44;;;;;;;0.70;0.50;;;11.10;99.90;;;;;;5046106;28;20191;-69
2021/10/26 05:58:13;;;;;;;0.70;0.50;;;11.10;99.90;;;;;;5046584;28;20452;-69
2021/10/26 06:00:39;;;;;;;0.80;0.60;;;11.10;99.90;;;;;;5046393;28;20837;-69
2021/10/26 06:03:05;;;;;;;1.33;1.10;;;11.00;99.90;;;;;;5043076;28;20437;-69
2021/10/26 06:05:31;;;;;;;0.70;0.50;;;11.10;99.90;;;;;;5040325;28;20453;-68
2021/10/26 06:07:57;;;;;;;29.93;3.00;;;11.00;99.90;;;;;;5046500;28;20831;-69
2021/10/26 06:10:24;;;;;;;1.63;1.50;;;11.00;99.90;;;;;;5047452;28;20433;-68
2021/10/26 06:12:53;;;;;;;0.80;0.80;;;11.10;99.90;;;;;;5043663;28;20434;-70
2021/10/26 06:15:18;;;;;;;0.70;0.60;;;11.00;99.90;;;;;;5046781;28;20982;-70
2021/10/26 06:17:44;;;;;;;0.70;0.50;;;11.00;99.90;;;;;;5046254;28;20442;-69
2021/10/26 06:20:12;;;;;;;1.30;1.20;;;11.10;99.90;;;;;;5043308;28;20210;-68
2021/10/26 06:22:38;;;;;;;0.80;0.80;;;11.10;99.90;;;;;;5047305;28;20211;-68
2021/10/26 06:25:04;;;;;;;0.70;0.50;;;11.10;99.90;;;;;;5039989;28;20472;-69
2021/10/26 06:27:30;;;;;;;1.63;1.47;;;11.10;99.90;;;;;;5044825;28;20487;-68
2021/10/26 06:29:58;;;;;;;0.80;0.70;;;11.20;99.90;;;;;;5046777;28;20429;-69
2021/10/26 06:32:24;;;;;;;2.40;0.83;;;11.20;99.90;;;;;;5045335;28;20175;-68
2021/10/26 06:34:49;;;;;;;0.80;0.70;;;11.30;99.90;;;;;;5055317;28;20425;-68
2021/10/26 06:37:15;;;;;;;0.70;0.67;;;11.30;99.90;;;;;;5056134;28;20309;-72
2021/10/26 06:39:41;;;;;;;0.70;0.50;;;11.40;99.90;;;;;;5046396;28;20260;-70
2021/10/26 06:42:07;;;;;;;0.70;0.50;;;11.40;99.90;;;;;;5045517;28;20444;-69
2021/10/26 06:44:32;;;;;;;0.70;0.60;;;11.50;99.90;;;;;;5044687;28;20285;-70
2021/10/26 06:46:58;;;;;;;0.70;0.60;;;11.50;99.90;;;;;;5042268;28;20198;-69
2021/10/26 06:49:24;;;;;;;0.70;0.50;;;11.60;99.90;;;;;;5046924;28;20205;-70
2021/10/26 06:51:49;;;;;;;0.90;0.60;;;11.50;99.90;;;;;;5045454;28;20616;-68
2021/10/26 06:54:15;;;;;;;0.70;0.57;;;11.50;99.90;;;;;;5046179;28;20321;-68
2021/10/26 06:56:41;;;;;;;2.60;2.50;;;11.50;99.90;;;;;;5043848;28;20201;-69
2021/10/26 06:59:07;;;;;;;0.70;0.50;;;11.40;99.90;;;;;;5045589;28;20452;-68
2021/10/26 07:01:33;;;;;;;0.80;0.70;;;11.40;99.90;;;;;;5045166;28;20425;-68
2021/10/26 07:03:58;;;;;;;0.70;0.50;;;11.40;99.90;;;;;;5042358;28;20521;-69
2021/10/26 07:06:24;;;;;;;1.00;0.90;;;11.40;99.90;;;;;;5041276;28;20199;-68
2021/10/26 07:08:49;;;;;;;1.37;0.70;;;11.40;99.90;;;;;;5044031;28;20700;-68
2021/10/26 07:11:15;;;;;;;0.80;0.77;;;11.40;99.90;;;;;;5040837;28;20178;-68
2021/10/26 07:13:40;;;;;;;1.87;1.00;;;11.50;99.90;;;;;;5039406;28;20536;-71
2021/10/26 07:16:07;;;;;;;0.70;0.50;;;11.70;99.90;;;;;;5043351;28;20230;-70
2021/10/26 07:18:33;;;;;;;0.80;0.63;;;11.90;99.90;;;;;;5042772;28;20289;-71
2021/10/26 07:20:59;;;;;;;0.70;0.50;;;12.00;99.90;;;;;;5044684;28;20541;-70
2021/10/26 07:23:25;;;;;;;0.80;0.67;;;12.20;99.90;;;;;;5045423;28;20182;-70
2021/10/26 07:25:51;;;;;;;0.80;0.77;;;12.20;99.90;;;;;;5042055;28;20463;-70
2021/10/26 07:28:18;;;;;;;0.90;0.70;;;12.20;99.90;;;;;;5042716;28;20429;-69
2021/10/26 07:30:44;;;;;;;1.30;1.10;;;12.30;99.90;;;;;;5043701;28;20429;-68
2021/10/26 07:33:16;;;;;;;0.80;0.70;;;12.40;99.90;;;;;;5045185;28;20509;-69
2021/10/26 07:35:43;;;;;;;0.80;0.60;;;12.60;99.90;;;;;;5041802;28;20441;-68
2021/10/26 07:38:12;;;;;;;0.70;0.50;;;12.60;99.90;;;;;;5055671;28;20460;-70
2021/10/26 07:40:37;;;;;;;0.70;0.50;;;12.70;99.90;;;;;;5047113;28;20497;-69
2021/10/26 07:43:03;;;;;;;0.90;0.60;;;12.70;99.90;;;;;;5046772;28;20460;-69
2021/10/26 07:45:29;;;;;;;1.37;1.27;;;12.70;99.90;;;;;;5044391;28;20253;-72
2021/10/26 07:47:55;;;;;;;0.80;0.80;;;12.70;99.90;;;;;;5052870;28;20176;-71
2021/10/26 07:50:20;;;;;;;0.77;0.63;;;12.70;99.90;;;;;;5045413;28;20524;-69
2021/10/26 07:52:47;;;;;;;0.70;0.53;;;12.80;99.90;;;;;;5044474;28;20233;-68
2021/10/26 07:55:13;;;;;;;0.70;0.50;;;12.70;99.90;;;;;;5048386;28;20437;-68
2021/10/26 07:57:39;;;;;;;0.80;0.60;;;12.80;99.90;;;;;;5052110;28;20425;-69
2021/10/26 08:00:06;;;;;;;0.80;0.60;;;12.80;99.90;;;;;;5050753;28;20969;-69
2021/10/26 08:02:32;;;;;;;0.93;0.70;;;12.90;99.90;;;;;;5050647;28;20414;-70
2021/10/26 08:04:57;;;;;;;0.70;0.50;;;13.10;99.90;;;;;;5049615;28;20424;-69
2021/10/26 08:07:25;;;;;;;0.70;0.50;;;13.10;99.90;;;;;;5050979;28;20195;-68
2021/10/26 08:09:54;;;;;;;0.80;0.80;;;13.10;99.90;;;;;;5050936;28;20598;-69
2021/10/26 08:12:20;;;;;;;0.80;0.70;;;13.10;99.90;;;;;;5051023;28;20424;-69
2021/10/26 08:14:46;;;;;;;0.70;0.60;;;13.10;99.90;;;;;;5050485;28;20432;-74
2021/10/26 08:17:13;;;;;;;1.10;0.70;;;13.30;99.90;;;;;;5050050;28;20449;-69
2021/10/26 08:19:42;;;;;;;1.13;1.00;;;13.40;99.90;;;;;;5053597;28;20478;-69
2021/10/26 08:22:13;;;;;;;1.60;1.50;;;13.60;99.90;;;;;;5054255;28;20410;-68
2021/10/26 08:24:38;;;;;;;3.17;2.80;;;14.00;99.90;;;;;;5053028;28;20968;-68
2021/10/26 08:27:09;;;;;;;5.30;1.70;;;14.30;99.90;;;;;;5054279;28;20464;-70
2021/10/26 08:35:15;;;;;;;1.97;1.83;;;15.20;99.90;;;;;;5054085;28;20422;-68
2021/10/26 08:37:37;;;;;;;1.83;1.60;;;15.50;99.90;;;;;;5054100;28;20433;-69
2021/10/26 08:40:03;;;;;;;0.80;0.70;;;16.10;99.90;;;;;;5054342;28;20459;-68
2021/10/26 08:42:30;;;;;;;5.33;2.07;;;16.70;99.90;;;;;;5054004;28;20428;-69
2021/10/26 08:44:56;;;;;;;2.10;1.37;;;17.40;99.90;;;;;;5046925;28;20410;-68
2021/10/26 08:47:21;;;;;;;0.80;0.60;;;18.20;99.90;;;;;;5054064;28;20453;-69
2021/10/26 08:49:51;;;;;;;2.87;0.77;;;18.60;99.90;;;;;;5053829;28;20417;-69
2021/10/26 08:52:19;;;;;;;0.87;0.80;;;19.30;99.90;;;;;;5052880;28;20171;-69
2021/10/26 08:54:46;;;;;;;0.70;0.50;;;19.70;99.90;;;;;;5052792;28;20421;-69
2021/10/26 08:57:11;;;;;;;9.93;2.50;;;19.30;99.90;;;;;;5053411;28;20449;-69
2021/10/26 08:59:37;;;;;;;0.80;0.60;;;18.90;99.90;;;;;;5053698;28;20822;-71
2021/10/26 09:02:04;;;;;;;0.70;0.50;;;18.60;99.90;;;;;;5053759;28;20182;-68
2021/10/26 09:04:31;;;;;;;1.20;1.17;;;18.30;99.90;;;;;;5053901;28;20163;-71
2021/10/26 09:07:04;;;;;;;0.93;0.83;;;18.20;99.90;;;;;;5052434;28;20800;-70
2021/10/26 09:09:32;;;;;;;0.80;0.60;;;18.10;99.90;;;;;;5053851;28;20417;-69
2021/10/26 09:17:51;;;;;;;0.93;0.90;;;18.60;99.90;;;;;;5053649;28;20486;-69
2021/10/26 09:20:24;;;;;;;0.80;0.60;;;18.30;99.90;;;;;;5053515;28;20822;-68
2021/10/26 09:22:56;;;;;;;3.00;1.83;;;18.30;99.90;;;;;;5053141;28;20764;-69
2021/10/26 09:25:34;;;;;;;1.00;0.80;;;18.80;99.90;;;;;;5053096;28;20524;-69
2021/10/26 09:28:16;;;;;;;0.80;0.70;;;19.50;99.90;;;;;;5052837;28;20413;-70
2021/10/26 09:30:56;;;;;;;0.70;0.50;;;19.90;99.90;;;;;;5056222;28;20481;-68
2021/10/26 09:33:39;;;;;;;0.70;0.50;;;20.10;99.90;;;;;;5053254;28;20444;-68
2021/10/26 09:36:41;;;;;;;0.70;0.60;;;20.30;99.90;;;;;;5053187;28;20422;-70
2021/10/26 09:39:10;;;;;;;0.70;0.50;;;20.90;99.90;;;;;;5030647;28;20458;-68
2021/10/26 09:41:52;;;;;;;0.70;0.50;;;21.30;99.90;;;;;;5049071;28;20449;-68
2021/10/26 09:44:20;;;;;;;0.80;0.60;;;21.00;99.90;;;;;;5052559;28;20759;-68
2021/10/26 09:46:54;;;;;;;0.90;0.80;;;20.90;99.90;;;;;;5052302;28;20818;-68
2021/10/26 09:49:45;;;;;;;0.80;0.70;;;20.80;99.90;;;;;;5044621;28;20797;-68
2021/10/26 09:52:18;;;;;;;1.73;1.63;;;20.20;99.90;;;;;;5052709;28;20413;-70
2021/10/26 09:54:48;;;;;;;0.70;0.50;;;20.30;99.90;;;;;;5052944;28;20419;-68
2021/10/26 09:57:16;;;;;;;0.80;0.60;;;20.30;99.90;;;;;;5052514;28;20448;-68
2021/10/26 09:59:50;;;;;;;0.70;0.50;;;20.70;99.90;;;;;;5054659;28;20479;-68
2021/10/26 10:02:21;;;;;;;1.20;1.10;;;20.70;99.90;;;;;;5057399;28;20427;-68
2021/10/26 10:04:48;;;;;;;1.00;0.70;;;20.30;99.90;;;;;;5052591;28;20421;-68
2021/10/26 10:07:13;;;;;;;0.80;0.70;;;19.80;99.90;;;;;;5052455;28;20440;-68
2021/10/26 10:09:39;;;;;;;1.43;1.33;;;19.10;99.90;;;;;;5045346;28;20472;-68
2021/10/26 10:12:06;;;;;;;2.57;1.13;;;19.10;99.90;;;;;;5046121;28;20171;-70
2021/10/26 10:14:40;;;;;;;0.70;0.60;;;18.90;99.90;;;;;;5052113;28;20175;-70
2021/10/26 10:17:12;;;;;;;0.70;0.60;;;18.60;99.90;;;;;;5052250;28;20437;-70
2021/10/26 10:19:40;;;;;;;0.70;0.60;;;19.80;99.90;;;;;;5052441;28;20966;-68
2021/10/26 10:22:07;;;;;;;0.80;0.70;;;20.80;99.90;;;;;;5052333;28;20417;-70
2021/10/26 10:24:45;;;;;;;1.33;0.63;;;21.30;99.90;;;;;;5052472;28;20445;-70
2021/10/26 10:27:13;;;;;;;1.20;1.07;;;21.50;99.90;;;;;;5050552;28;20447;-68
2021/10/26 10:29:39;;;;;;;15.37;0.90;;;22.40;99.90;;;;;;5051839;28;20468;-68
2021/10/26 10:32:06;;;;;;;0.90;0.80;;;22.90;99.90;;;;;;5066495;28;20421;-68
2021/10/26 10:34:32;;;;;;;0.93;0.83;;;23.30;99.90;;;;;;5051657;28;20467;-68
2021/10/26 10:37:00;;;;;;;0.80;0.60;;;24.40;99.90;;;;;;5051733;28;20433;-68
2021/10/26 10:39:33;;;;;;;1.37;0.90;;;24.70;99.90;;;;;;5051976;28;20538;-68
2021/10/26 10:42:13;;;;;;;1.20;0.80;;;24.10;98.60;;;;;;5050475;28;20449;-67
2021/10/26 10:44:40;;;;;;;0.80;0.50;;;22.90;99.00;;;;;;5051899;28;20479;-66
2021/10/26 10:47:16;;;;;;;0.80;0.60;;;21.90;99.90;;;;;;5050975;28;20980;-67
2021/10/26 10:49:43;;;;;;;1.37;1.10;;;20.90;99.90;;;;;;5051958;28;20832;-68
2021/10/26 10:52:21;;;;;;;0.80;0.60;;;20.20;99.90;;;;;;5051971;28;20424;-66
2021/10/26 10:54:54;;;;;;;0.80;0.60;;;19.70;99.90;;;;;;5051412;28;20430;-68
2021/10/26 10:57:41;;;;;;;1.27;1.13;;;19.10;99.90;;;;;;5051725;28;20456;-67
2021/10/26 11:00:24;;;;;;;0.80;0.60;;;18.70;99.90;;;;;;5053175;28;20458;-67
2021/10/26 11:02:51;;;;;;;1.10;1.00;;;18.70;99.90;;;;;;5050377;28;20511;-67
2021/10/26 11:05:36;;;;;;;2.00;1.10;;;19.00;99.90;;;;;;5050061;28;20413;-67
2021/10/26 11:08:03;;;;;;;1.00;0.90;;;20.50;99.90;;;;;;5051935;28;20402;-67
2021/10/26 11:10:50;;;;;;;0.80;0.60;;;22.40;99.90;;;;;;5051565;28;20421;-67
2021/10/26 11:13:23;;;;;;;0.80;0.60;;;24.10;99.90;;;;;;5051166;28;20910;-66
2021/10/26 11:15:55;;;;;;;0.97;0.90;;;25.70;96.00;;;;;;5051284;28;20445;-67
2021/10/26 11:18:33;;;;;;;2.30;1.20;;;26.40;88.70;;;;;;5049967;28;20434;-68
2021/10/26 11:21:00;;;;;;;1.03;0.70;;;27.00;83.60;;;;;;5051575;28;20421;-68
2021/10/26 11:23:33;;;;;;;0.80;0.60;;;26.90;78.10;;;;;;5051419;28;20409;-68
2021/10/26 11:26:01;;;;;;;0.93;0.83;;;27.60;76.40;;;;;;5043892;28;20434;-67
2021/10/26 11:28:28;;;;;;;0.97;0.73;;;28.00;70.80;;;;;;5051400;28;20428;-69
2021/10/26 11:31:02;;;;;;;1.43;1.00;;;27.10;72.80;;;;;;5051346;28;20410;-67
2021/10/26 11:33:29;;;;;;;0.80;0.70;;;26.10;69.90;;;;;;5051339;28;20414;-68
2021/10/26 11:36:07;;;;;;;0.80;0.60;;;25.10;71.90;;;;;;5051078;28;20457;-68
2021/10/26 11:38:46;;;;;;;0.80;0.60;;;24.00;73.80;;;;;;5051272;28;20417;-67
2021/10/26 11:41:17;;;;;;;0.90;0.80;;;23.90;82.40;;;;;;5051267;28;20413;-69
2021/10/26 11:43:47;;;;;;;0.80;0.60;;;23.60;81.80;;;;;;5051567;28;20444;-68
2021/10/26 11:46:25;;;;;;;0.80;0.60;;;24.10;81.40;;;;;;5055942;28;20434;-68
2021/10/26 11:48:58;;;;;;;0.80;0.60;;;25.00;81.70;;;;;;5042931;28;20456;-69
2021/10/26 11:51:24;;;;;;;1.30;1.20;;;26.50;77.40;;;;;;5051132;28;20433;-69
2021/10/26 11:53:56;;;;;;;1.10;0.70;;;27.00;72.60;;;;;;5055296;28;20417;-69
2021/10/26 11:56:43;;;;;;;1.10;0.60;;;27.10;73.50;;;;;;5054783;28;20218;-69
2021/10/26 11:59:24;;;;;;;6.50;0.97;;;27.50;67.30;;;;;;5037868;28;20456;-69
2021/10/26 12:01:55;;;;;;;1.90;1.30;;;27.60;65.90;;;;;;5054764;28;20424;-69
2021/10/26 12:04:29;;;;;;;0.80;0.60;;;27.50;67.50;;;;;;5055075;28;20778;-69
2021/10/26 12:07:00;;;;;;;0.80;0.60;;;27.40;67.40;;;;;;5054740;28;20487;-69
2021/10/26 12:09:29;;;;;;;1.10;0.70;;;27.30;68.10;;;;;;5054915;28;20918;-69
2021/10/26 12:11:59;;;;;;;0.80;0.60;;;27.30;64.40;;;;;;5054885;28;20425;-68
2021/10/26 12:14:30;;;;;;;1.00;0.90;;;26.60;63.80;;;;;;5054814;28;20471;-69
2021/10/26 12:17:09;;;;;;;1.23;0.90;;;26.10;64.80;;;;;;5054305;28;20441;-69
2021/10/26 12:19:38;;;;;;;0.80;0.60;;;25.40;67.30;;;;;;5054404;28;20484;-68
2021/10/26 12:22:04;;;;;;;2.33;2.10;;;26.00;70.50;;;;;;5054799;28;20414;-68
2021/10/26 12:24:32;;;;;;;0.80;0.60;;;25.50;68.90;;;;;;5054838;28;20436;-68
2021/10/26 12:27:01;;;;;;;1.10;1.00;;;26.00;70.60;;;;;;5054216;28;20433;-68
2021/10/26 12:29:30;;;;;;;0.80;0.60;;;26.50;66.40;;;;;;5054741;28;20470;-68
2021/10/26 12:31:56;;;;;;;6.20;0.93;;;27.10;68.00;;;;;;5054407;28;20948;-68
2021/10/26 12:34:22;;;;;;;0.90;0.70;;;27.70;64.80;;;;;;5054528;28;20425;-68
2021/10/26 12:36:47;;;;;;;0.80;0.60;;;28.10;62.90;;;;;;5054126;28;20815;-68
2021/10/26 12:39:24;;;;;;;1.10;0.80;;;28.80;63.60;;;;;;5054378;28;20207;-69
2021/10/26 12:41:49;;;;;;;1.30;0.90;;;29.00;59.50;;;;;;5054172;28;20174;-68
2021/10/26 12:44:18;;;;;;;0.90;0.70;;;28.30;60.00;;;;;;5053888;28;20418;-68
2021/10/26 12:46:44;;;;;;;1.53;0.70;;;28.00;60.70;;;;;;5052586;28;20274;-68
2021/10/26 12:49:15;;;;;;;1.03;0.87;;;28.20;60.80;;;;;;5054505;28;20424;-69
2021/10/26 12:51:43;;;;;;;1.10;0.90;;;27.90;58.80;;;;;;5054107;28;20467;-69
2021/10/26 12:54:16;;;;;;;1.00;0.70;;;27.80;59.70;;;;;;5054135;28;20421;-69
2021/10/26 12:56:47;;;;;;;1.80;1.60;;;28.10;61.50;;;;;;5053616;28;20444;-69
2021/10/26 12:59:17;;;;;;;0.80;0.60;;;27.90;60.00;;;;;;5052165;28;20483;-69
2021/10/26 13:01:46;;;;;;;0.80;0.70;;;27.60;60.00;;;;;;5052727;28;20504;-69
2021/10/26 13:04:22;;;;;;;1.93;1.23;;;27.30;59.60;;;;;;5053265;28;20417;-69